sensor_id;sensor_type;location;lat;lon;timestamp;P1;durP1;ratioP1;P2;durP2;ratioP2
21589;SDS011;10957;50.968;6.828;2022-11-24T00:02:38;11.63;;;11.02;;
21589;SDS011;10957;50.968;6.828;2022-11-24T00:07:39;9.65;;;9.15;;
21589;SDS011;10957;50.968;6.828;2022-11-24T00:12:40;9.60;;;9.10;;
21589;SDS011;10957;50.968;6.828;2022-11-24T00:17:40;9.55;;;9.05;;
21589;SDS011;10957;50.968;6.828;2022-11-24T00:22:41;10.63;;;10.05;;
21589;SDS011;10957;50.968;6.828;2022-11-24T00:27:42;9.85;;;9.35;;
21589;SDS011;10957;50.968;6.828;2022-11-24T00:32:42;9.80;;;9.30;;
21589;SDS011;10957;50.968;6.828;2022-11-24T00:37:43;9.80;;;9.30;;
21589;SDS011;10957;50.968;6.828;2022-11-24T00:42:44;9.20;;;8.70;;
21589;SDS011;10957;50.968;6.828;2022-11-24T00:47:44;9.70;;;9.20;;
21589;SDS011;10957;50.968;6.828;2022-11-24T00:52:45;9.52;;;9.02;;
21589;SDS011;10957;50.968;6.828;2022-11-24T00:57:46;9.48;;;8.98;;
21589;SDS011;10957;50.968;6.828;2022-11-24T01:02:46;9.48;;;8.98;;
21589;SDS011;10957;50.968;6.828;2022-11-24T01:07:47;9.90;;;9.40;;
21589;SDS011;10957;50.968;6.828;2022-11-24T01:12:48;10.18;;;9.68;;
21589;SDS011;10957;50.968;6.828;2022-11-24T01:17:49;9.50;;;9.00;;
21589;SDS011;10957;50.968;6.828;2022-11-24T01:22:50;9.23;;;8.73;;
21589;SDS011;10957;50.968;6.828;2022-11-24T01:27:50;9.65;;;9.15;;
21589;SDS011;10957;50.968;6.828;2022-11-24T01:32:51;9.60;;;9.10;;
21589;SDS011;10957;50.968;6.828;2022-11-24T01:37:52;9.02;;;8.63;;
21589;SDS011;10957;50.968;6.828;2022-11-24T01:42:53;9.40;;;8.90;;
21589;SDS011;10957;50.968;6.828;2022-11-24T01:47:53;9.30;;;8.80;;
21589;SDS011;10957;50.968;6.828;2022-11-24T01:52:55;10.05;;;9.50;;
21589;SDS011;10957;50.968;6.828;2022-11-24T01:58:10;9.55;;;9.05;;
21589;SDS011;10957;50.968;6.828;2022-11-24T02:03:15;9.57;;;9.07;;
21589;SDS011;10957;50.968;6.828;2022-11-24T02:08:33;9.32;;;8.85;;
21589;SDS011;10957;50.968;6.828;2022-11-24T02:13:56;9.15;;;8.70;;
21589;SDS011;10957;50.968;6.828;2022-11-24T02:18:56;9.23;;;8.73;;
21589;SDS011;10957;50.968;6.828;2022-11-24T02:24:02;9.45;;;8.95;;
21589;SDS011;10957;50.968;6.828;2022-11-24T02:29:13;9.32;;;8.82;;
21589;SDS011;10957;50.968;6.828;2022-11-24T02:34:14;9.63;;;9.13;;
21589;SDS011;10957;50.968;6.828;2022-11-24T02:39:15;9.60;;;9.10;;
21589;SDS011;10957;50.968;6.828;2022-11-24T02:44:16;9.65;;;9.15;;
21589;SDS011;10957;50.968;6.828;2022-11-24T02:49:20;9.30;;;8.80;;
21589;SDS011;10957;50.968;6.828;2022-11-24T02:54:21;10.50;;;9.90;;
21589;SDS011;10957;50.968;6.828;2022-11-24T02:59:22;9.90;;;9.40;;
21589;SDS011;10957;50.968;6.828;2022-11-24T03:04:23;9.80;;;9.30;;
21589;SDS011;10957;50.968;6.828;2022-11-24T03:09:24;9.70;;;9.20;;
21589;SDS011;10957;50.968;6.828;2022-11-24T03:14:24;9.65;;;9.15;;
21589;SDS011;10957;50.968;6.828;2022-11-24T03:19:25;9.68;;;9.18;;
21589;SDS011;10957;50.968;6.828;2022-11-24T03:24:26;9.30;;;8.80;;
21589;SDS011;10957;50.968;6.828;2022-11-24T03:29:29;9.35;;;8.85;;
21589;SDS011;10957;50.968;6.828;2022-11-24T03:34:30;9.15;;;8.68;;
21589;SDS011;10957;50.968;6.828;2022-11-24T03:39:31;9.30;;;8.80;;
21589;SDS011;10957;50.968;6.828;2022-11-24T03:44:31;9.30;;;8.80;;
21589;SDS011;10957;50.968;6.828;2022-11-24T03:49:32;9.57;;;9.02;;
21589;SDS011;10957;50.968;6.828;2022-11-24T03:54:33;9.30;;;8.80;;
21589;SDS011;10957;50.968;6.828;2022-11-24T03:59:34;9.60;;;9.10;;
21589;SDS011;10957;50.968;6.828;2022-11-24T04:04:34;9.75;;;9.25;;
21589;SDS011;10957;50.968;6.828;2022-11-24T04:09:35;9.38;;;8.88;;
21589;SDS011;10957;50.968;6.828;2022-11-24T04:14:36;8.70;;;8.30;;
21589;SDS011;10957;50.968;6.828;2022-11-24T04:19:36;9.32;;;8.82;;
21589;SDS011;10957;50.968;6.828;2022-11-24T04:24:37;9.27;;;8.77;;
21589;SDS011;10957;50.968;6.828;2022-11-24T04:29:38;8.25;;;7.85;;
21589;SDS011;10957;50.968;6.828;2022-11-24T04:34:38;9.30;;;8.80;;
21589;SDS011;10957;50.968;6.828;2022-11-24T04:39:39;8.68;;;8.27;;
21589;SDS011;10957;50.968;6.828;2022-11-24T04:44:40;8.50;;;8.10;;
21589;SDS011;10957;50.968;6.828;2022-11-24T04:49:41;8.35;;;7.95;;
21589;SDS011;10957;50.968;6.828;2022-11-24T04:54:41;8.25;;;7.85;;
21589;SDS011;10957;50.968;6.828;2022-11-24T04:59:42;8.60;;;8.20;;
21589;SDS011;10957;50.968;6.828;2022-11-24T05:04:43;9.93;;;9.43;;
21589;SDS011;10957;50.968;6.828;2022-11-24T05:09:45;8.77;;;8.38;;
21589;SDS011;10957;50.968;6.828;2022-11-24T05:15:05;8.65;;;8.25;;
21589;SDS011;10957;50.968;6.828;2022-11-24T05:20:06;8.60;;;8.20;;
21589;SDS011;10957;50.968;6.828;2022-11-24T05:25:08;9.13;;;8.55;;
21589;SDS011;10957;50.968;6.828;2022-11-24T05:30:09;9.45;;;8.90;;
21589;SDS011;10957;50.968;6.828;2022-11-24T05:35:10;8.23;;;7.82;;
21589;SDS011;10957;50.968;6.828;2022-11-24T05:40:11;8.00;;;7.60;;
21589;SDS011;10957;50.968;6.828;2022-11-24T05:45:18;7.80;;;7.40;;
21589;SDS011;10957;50.968;6.828;2022-11-24T05:50:20;9.18;;;8.25;;
21589;SDS011;10957;50.968;6.828;2022-11-24T05:55:21;7.60;;;7.20;;
21589;SDS011;10957;50.968;6.828;2022-11-24T06:00:22;8.20;;;7.80;;
21589;SDS011;10957;50.968;6.828;2022-11-24T06:05:23;7.60;;;7.20;;
21589;SDS011;10957;50.968;6.828;2022-11-24T06:10:24;7.53;;;7.18;;
21589;SDS011;10957;50.968;6.828;2022-11-24T06:15:26;8.77;;;8.25;;
21589;SDS011;10957;50.968;6.828;2022-11-24T06:20:26;8.20;;;7.80;;
21589;SDS011;10957;50.968;6.828;2022-11-24T06:25:27;7.53;;;7.20;;
21589;SDS011;10957;50.968;6.828;2022-11-24T06:30:28;7.20;;;6.90;;
21589;SDS011;10957;50.968;6.828;2022-11-24T06:35:29;7.60;;;7.20;;
21589;SDS011;10957;50.968;6.828;2022-11-24T06:40:29;7.88;;;7.47;;
21589;SDS011;10957;50.968;6.828;2022-11-24T06:45:30;7.68;;;7.28;;
21589;SDS011;10957;50.968;6.828;2022-11-24T06:50:31;7.82;;;7.43;;
21589;SDS011;10957;50.968;6.828;2022-11-24T06:55:31;8.40;;;8.00;;
21589;SDS011;10957;50.968;6.828;2022-11-24T07:00:32;9.13;;;8.63;;
21589;SDS011;10957;50.968;6.828;2022-11-24T07:05:33;8.40;;;8.00;;
21589;SDS011;10957;50.968;6.828;2022-11-24T07:10:34;8.70;;;8.30;;
21589;SDS011;10957;50.968;6.828;2022-11-24T07:15:35;8.43;;;8.02;;
21589;SDS011;10957;50.968;6.828;2022-11-24T07:20:35;8.55;;;8.15;;
21589;SDS011;10957;50.968;6.828;2022-11-24T07:25:36;8.18;;;7.78;;
21589;SDS011;10957;50.968;6.828;2022-11-24T07:30:37;8.30;;;7.90;;
21589;SDS011;10957;50.968;6.828;2022-11-24T07:35:38;8.40;;;8.00;;
21589;SDS011;10957;50.968;6.828;2022-11-24T07:40:39;8.77;;;8.38;;
21589;SDS011;10957;50.968;6.828;2022-11-24T07:45:40;8.40;;;8.00;;
21589;SDS011;10957;50.968;6.828;2022-11-24T07:50:41;8.40;;;8.00;;
21589;SDS011;10957;50.968;6.828;2022-11-24T07:55:42;8.18;;;7.78;;
21589;SDS011;10957;50.968;6.828;2022-11-24T08:00:43;7.70;;;7.30;;
21589;SDS011;10957;50.968;6.828;2022-11-24T08:05:51;7.75;;;7.35;;
21589;SDS011;10957;50.968;6.828;2022-11-24T08:10:53;7.70;;;7.30;;
21589;SDS011;10957;50.968;6.828;2022-11-24T08:15:54;7.90;;;7.50;;
21589;SDS011;10957;50.968;6.828;2022-11-24T08:20:56;7.82;;;7.43;;
21589;SDS011;10957;50.968;6.828;2022-11-24T08:25:58;8.27;;;7.88;;
21589;SDS011;10957;50.968;6.828;2022-11-24T08:31:05;7.82;;;7.43;;
21589;SDS011;10957;50.968;6.828;2022-11-24T08:36:12;10.63;;;8.65;;
21589;SDS011;10957;50.968;6.828;2022-11-24T08:41:16;8.57;;;8.18;;
21589;SDS011;10957;50.968;6.828;2022-11-24T08:46:17;7.90;;;7.50;;
21589;SDS011;10957;50.968;6.828;2022-11-24T08:51:19;7.60;;;7.25;;
21589;SDS011;10957;50.968;6.828;2022-11-24T08:56:22;8.73;;;8.23;;
21589;SDS011;10957;50.968;6.828;2022-11-24T09:01:23;7.80;;;7.40;;
21589;SDS011;10957;50.968;6.828;2022-11-24T09:06:26;7.88;;;7.50;;
21589;SDS011;10957;50.968;6.828;2022-11-24T09:11:29;7.53;;;7.20;;
21589;SDS011;10957;50.968;6.828;2022-11-24T09:16:33;7.38;;;7.07;;
21589;SDS011;10957;50.968;6.828;2022-11-24T09:21:34;7.95;;;7.55;;
21589;SDS011;10957;50.968;6.828;2022-11-24T09:26:38;7.35;;;7.03;;
21589;SDS011;10957;50.968;6.828;2022-11-24T09:31:39;7.68;;;7.28;;
21589;SDS011;10957;50.968;6.828;2022-11-24T09:36:40;7.93;;;7.53;;
21589;SDS011;10957;50.968;6.828;2022-11-24T09:47:02;7.30;;;7.00;;
21589;SDS011;10957;50.968;6.828;2022-11-24T09:52:40;7.25;;;6.95;;
21589;SDS011;10957;50.968;6.828;2022-11-24T09:57:56;7.40;;;7.10;;
21589;SDS011;10957;50.968;6.828;2022-11-24T10:03:31;7.72;;;7.32;;
21589;SDS011;10957;50.968;6.828;2022-11-24T10:13:58;7.72;;;7.32;;
21589;SDS011;10957;50.968;6.828;2022-11-24T10:29:39;7.60;;;7.20;;
21589;SDS011;10957;50.968;6.828;2022-11-24T10:34:45;8.30;;;7.90;;
21589;SDS011;10957;50.968;6.828;2022-11-24T10:55:18;7.72;;;7.32;;
21589;SDS011;10957;50.968;6.828;2022-11-24T11:05:35;8.40;;;8.00;;
21589;SDS011;10957;50.968;6.828;2022-11-24T11:10:42;7.95;;;7.55;;
21589;SDS011;10957;50.968;6.828;2022-11-24T11:15:43;8.32;;;7.78;;
21589;SDS011;10957;50.968;6.828;2022-11-24T11:20:48;7.63;;;7.22;;
21589;SDS011;10957;50.968;6.828;2022-11-24T11:25:50;7.20;;;6.90;;
21589;SDS011;10957;50.968;6.828;2022-11-24T11:31:18;8.50;;;8.10;;
21589;SDS011;10957;50.968;6.828;2022-11-24T11:36:20;7.40;;;7.10;;
21589;SDS011;10957;50.968;6.828;2022-11-24T11:41:35;8.63;;;8.20;;
21589;SDS011;10957;50.968;6.828;2022-11-24T11:46:40;7.80;;;7.40;;
21589;SDS011;10957;50.968;6.828;2022-11-24T11:56:47;7.45;;;7.05;;
21589;SDS011;10957;50.968;6.828;2022-11-24T12:07:34;7.05;;;6.75;;
21589;SDS011;10957;50.968;6.828;2022-11-24T12:29:34;7.72;;;7.32;;
21589;SDS011;10957;50.968;6.828;2022-11-24T12:40:03;37.67;;;7.93;;
21589;SDS011;10957;50.968;6.828;2022-11-24T12:45:13;7.32;;;7.03;;
21589;SDS011;10957;50.968;6.828;2022-11-24T12:50:19;7.60;;;7.20;;
21589;SDS011;10957;50.968;6.828;2022-11-24T12:55:23;7.35;;;7.05;;
21589;SDS011;10957;50.968;6.828;2022-11-24T13:00:30;7.95;;;7.55;;
21589;SDS011;10957;50.968;6.828;2022-11-24T13:10:53;7.30;;;6.90;;
21589;SDS011;10957;50.968;6.828;2022-11-24T13:20:54;6.97;;;6.68;;
21589;SDS011;10957;50.968;6.828;2022-11-24T13:26:24;7.20;;;6.90;;
21589;SDS011;10957;50.968;6.828;2022-11-24T13:31:28;7.18;;;6.88;;
21589;SDS011;10957;50.968;6.828;2022-11-24T13:36:30;8.10;;;7.53;;
21589;SDS011;10957;50.968;6.828;2022-11-24T13:51:56;9.25;;;8.20;;
21589;SDS011;10957;50.968;6.828;2022-11-24T13:57:44;7.18;;;6.88;;
21589;SDS011;10957;50.968;6.828;2022-11-24T14:02:48;6.80;;;6.50;;
21589;SDS011;10957;50.968;6.828;2022-11-24T14:07:51;7.70;;;7.30;;
21589;SDS011;10957;50.968;6.828;2022-11-24T14:18:29;8.02;;;7.63;;
21589;SDS011;10957;50.968;6.828;2022-11-24T14:23:30;7.57;;;7.20;;
21589;SDS011;10957;50.968;6.828;2022-11-24T14:28:31;8.60;;;8.07;;
21589;SDS011;10957;50.968;6.828;2022-11-24T14:33:32;7.30;;;7.00;;
21589;SDS011;10957;50.968;6.828;2022-11-24T14:38:33;7.30;;;7.00;;
21589;SDS011;10957;50.968;6.828;2022-11-24T14:43:33;7.00;;;6.70;;
21589;SDS011;10957;50.968;6.828;2022-11-24T14:48:35;7.30;;;7.00;;
21589;SDS011;10957;50.968;6.828;2022-11-24T14:53:45;7.70;;;7.30;;
21589;SDS011;10957;50.968;6.828;2022-11-24T14:58:50;7.72;;;7.32;;
21589;SDS011;10957;50.968;6.828;2022-11-24T15:14:39;7.22;;;6.93;;
21589;SDS011;10957;50.968;6.828;2022-11-24T15:19:50;7.00;;;6.70;;
21589;SDS011;10957;50.968;6.828;2022-11-24T15:24:55;7.20;;;6.90;;
21589;SDS011;10957;50.968;6.828;2022-11-24T15:29:56;7.30;;;6.97;;
21589;SDS011;10957;50.968;6.828;2022-11-24T15:34:57;7.85;;;7.45;;
21589;SDS011;10957;50.968;6.828;2022-11-24T15:39:58;7.28;;;6.97;;
21589;SDS011;10957;50.968;6.828;2022-11-24T15:44:59;8.23;;;7.72;;
21589;SDS011;10957;50.968;6.828;2022-11-24T15:49:59;9.00;;;8.48;;
21589;SDS011;10957;50.968;6.828;2022-11-24T15:55:00;7.60;;;7.20;;
21589;SDS011;10957;50.968;6.828;2022-11-24T16:00:02;8.65;;;8.05;;
21589;SDS011;10957;50.968;6.828;2022-11-24T16:05:12;8.80;;;8.40;;
21589;SDS011;10957;50.968;6.828;2022-11-24T16:10:23;7.80;;;7.32;;
21589;SDS011;10957;50.968;6.828;2022-11-24T16:15:29;7.72;;;7.32;;
21589;SDS011;10957;50.968;6.828;2022-11-24T16:20:30;7.30;;;7.00;;
21589;SDS011;10957;50.968;6.828;2022-11-24T16:25:35;7.53;;;7.15;;
21589;SDS011;10957;50.968;6.828;2022-11-24T16:30:38;8.05;;;7.65;;
21589;SDS011;10957;50.968;6.828;2022-11-24T16:35:39;7.22;;;6.85;;
21589;SDS011;10957;50.968;6.828;2022-11-24T16:40:40;7.82;;;7.43;;
21589;SDS011;10957;50.968;6.828;2022-11-24T16:45:40;7.50;;;7.10;;
21589;SDS011;10957;50.968;6.828;2022-11-24T16:50:42;7.13;;;6.82;;
21589;SDS011;10957;50.968;6.828;2022-11-24T16:55:43;8.00;;;7.60;;
21589;SDS011;10957;50.968;6.828;2022-11-24T17:00:43;7.60;;;7.20;;
21589;SDS011;10957;50.968;6.828;2022-11-24T17:05:54;7.82;;;7.43;;
21589;SDS011;10957;50.968;6.828;2022-11-24T17:11:08;7.90;;;7.50;;
21589;SDS011;10957;50.968;6.828;2022-11-24T17:16:20;8.02;;;7.55;;
21589;SDS011;10957;50.968;6.828;2022-11-24T17:21:23;8.20;;;7.80;;
21589;SDS011;10957;50.968;6.828;2022-11-24T17:26:27;7.50;;;7.18;;
21589;SDS011;10957;50.968;6.828;2022-11-24T17:31:28;7.70;;;7.30;;
21589;SDS011;10957;50.968;6.828;2022-11-24T17:36:32;7.30;;;6.90;;
21589;SDS011;10957;50.968;6.828;2022-11-24T17:41:35;7.80;;;7.40;;
21589;SDS011;10957;50.968;6.828;2022-11-24T17:46:36;7.75;;;7.35;;
21589;SDS011;10957;50.968;6.828;2022-11-24T17:51:38;7.75;;;7.35;;
21589;SDS011;10957;50.968;6.828;2022-11-24T17:56:40;7.00;;;6.70;;
21589;SDS011;10957;50.968;6.828;2022-11-24T18:01:41;8.07;;;7.60;;
21589;SDS011;10957;50.968;6.828;2022-11-24T18:06:43;7.00;;;6.70;;
21589;SDS011;10957;50.968;6.828;2022-11-24T18:11:44;6.90;;;6.60;;
21589;SDS011;10957;50.968;6.828;2022-11-24T18:16:45;7.22;;;6.93;;
21589;SDS011;10957;50.968;6.828;2022-11-24T18:21:46;8.07;;;7.35;;
21589;SDS011;10957;50.968;6.828;2022-11-24T18:26:47;8.10;;;7.70;;
21589;SDS011;10957;50.968;6.828;2022-11-24T18:31:49;7.60;;;7.20;;
21589;SDS011;10957;50.968;6.828;2022-11-24T18:36:52;7.47;;;7.10;;
21589;SDS011;10957;50.968;6.828;2022-11-24T18:41:53;7.30;;;7.00;;
21589;SDS011;10957;50.968;6.828;2022-11-24T18:46:54;6.90;;;6.60;;
21589;SDS011;10957;50.968;6.828;2022-11-24T18:51:56;7.13;;;6.82;;
21589;SDS011;10957;50.968;6.828;2022-11-24T18:56:57;7.43;;;7.07;;
21589;SDS011;10957;50.968;6.828;2022-11-24T19:01:58;6.70;;;6.40;;
21589;SDS011;10957;50.968;6.828;2022-11-24T19:06:59;6.60;;;6.30;;
21589;SDS011;10957;50.968;6.828;2022-11-24T19:11:59;6.35;;;6.05;;
21589;SDS011;10957;50.968;6.828;2022-11-24T19:17:01;6.57;;;6.28;;
21589;SDS011;10957;50.968;6.828;2022-11-24T19:22:02;7.75;;;7.30;;
21589;SDS011;10957;50.968;6.828;2022-11-24T19:27:03;7.43;;;7.03;;
21589;SDS011;10957;50.968;6.828;2022-11-24T19:32:04;6.57;;;6.28;;
21589;SDS011;10957;50.968;6.828;2022-11-24T19:37:05;6.95;;;6.65;;
21589;SDS011;10957;50.968;6.828;2022-11-24T19:42:06;10.45;;;9.75;;
21589;SDS011;10957;50.968;6.828;2022-11-24T19:47:07;7.00;;;6.68;;
21589;SDS011;10957;50.968;6.828;2022-11-24T19:52:07;7.78;;;7.38;;
21589;SDS011;10957;50.968;6.828;2022-11-24T19:57:08;7.05;;;6.75;;
21589;SDS011;10957;50.968;6.828;2022-11-24T20:02:09;7.75;;;7.35;;
21589;SDS011;10957;50.968;6.828;2022-11-24T20:07:10;6.32;;;6.03;;
21589;SDS011;10957;50.968;6.828;2022-11-24T20:12:15;7.30;;;6.95;;
21589;SDS011;10957;50.968;6.828;2022-11-24T20:17:19;8.05;;;7.63;;
21589;SDS011;10957;50.968;6.828;2022-11-24T20:22:20;6.07;;;5.78;;
21589;SDS011;10957;50.968;6.828;2022-11-24T20:27:21;6.22;;;5.93;;
21589;SDS011;10957;50.968;6.828;2022-11-24T20:32:24;6.40;;;6.10;;
21589;SDS011;10957;50.968;6.828;2022-11-24T20:37:25;6.60;;;6.30;;
21589;SDS011;10957;50.968;6.828;2022-11-24T20:42:28;7.45;;;7.00;;
21589;SDS011;10957;50.968;6.828;2022-11-24T20:47:30;6.90;;;6.60;;
21589;SDS011;10957;50.968;6.828;2022-11-24T20:52:31;7.50;;;7.10;;
21589;SDS011;10957;50.968;6.828;2022-11-24T20:57:33;6.70;;;6.40;;
21589;SDS011;10957;50.968;6.828;2022-11-24T21:02:34;7.45;;;7.13;;
21589;SDS011;10957;50.968;6.828;2022-11-24T21:07:35;6.53;;;6.22;;
21589;SDS011;10957;50.968;6.828;2022-11-24T21:12:36;6.80;;;6.50;;
21589;SDS011;10957;50.968;6.828;2022-11-24T21:17:37;7.05;;;6.75;;
21589;SDS011;10957;50.968;6.828;2022-11-24T21:22:38;6.80;;;6.50;;
21589;SDS011;10957;50.968;6.828;2022-11-24T21:27:40;6.80;;;6.50;;
21589;SDS011;10957;50.968;6.828;2022-11-24T21:32:40;7.90;;;7.50;;
21589;SDS011;10957;50.968;6.828;2022-11-24T21:37:41;8.35;;;7.90;;
21589;SDS011;10957;50.968;6.828;2022-11-24T21:42:42;8.38;;;7.97;;
21589;SDS011;10957;50.968;6.828;2022-11-24T21:47:43;7.90;;;7.50;;
21589;SDS011;10957;50.968;6.828;2022-11-24T21:52:45;8.20;;;7.80;;
21589;SDS011;10957;50.968;6.828;2022-11-24T21:57:46;7.80;;;7.40;;
21589;SDS011;10957;50.968;6.828;2022-11-24T22:02:47;8.38;;;7.97;;
21589;SDS011;10957;50.968;6.828;2022-11-24T22:07:47;7.93;;;7.53;;
21589;SDS011;10957;50.968;6.828;2022-11-24T22:12:49;7.97;;;7.57;;
21589;SDS011;10957;50.968;6.828;2022-11-24T22:17:50;8.82;;;8.43;;
21589;SDS011;10957;50.968;6.828;2022-11-24T22:22:51;8.60;;;8.10;;
21589;SDS011;10957;50.968;6.828;2022-11-24T22:27:51;8.50;;;8.10;;
21589;SDS011;10957;50.968;6.828;2022-11-24T22:32:52;8.30;;;7.90;;
21589;SDS011;10957;50.968;6.828;2022-11-24T22:37:53;9.57;;;8.98;;
21589;SDS011;10957;50.968;6.828;2022-11-24T22:42:54;8.38;;;7.97;;
21589;SDS011;10957;50.968;6.828;2022-11-24T22:47:57;8.30;;;7.90;;
21589;SDS011;10957;50.968;6.828;2022-11-24T22:52:57;10.57;;;9.80;;
21589;SDS011;10957;50.968;6.828;2022-11-24T22:57:58;8.20;;;7.80;;
21589;SDS011;10957;50.968;6.828;2022-11-24T23:02:59;8.60;;;8.20;;
21589;SDS011;10957;50.968;6.828;2022-11-24T23:07:59;9.90;;;9.02;;
21589;SDS011;10957;50.968;6.828;2022-11-24T23:13:00;8.48;;;8.07;;
21589;SDS011;10957;50.968;6.828;2022-11-24T23:18:01;8.63;;;8.20;;
21589;SDS011;10957;50.968;6.828;2022-11-24T23:23:02;8.60;;;8.10;;
21589;SDS011;10957;50.968;6.828;2022-11-24T23:28:03;9.80;;;9.20;;
21589;SDS011;10957;50.968;6.828;2022-11-24T23:33:03;8.88;;;8.48;;
21589;SDS011;10957;50.968;6.828;2022-11-24T23:38:04;9.55;;;9.05;;
21589;SDS011;10957;50.968;6.828;2022-11-24T23:43:05;9.40;;;8.90;;
21589;SDS011;10957;50.968;6.828;2022-11-24T23:48:05;8.93;;;8.52;;
21589;SDS011;10957;50.968;6.828;2022-11-24T23:53:11;8.90;;;8.50;;
21589;SDS011;10957;50.968;6.828;2022-11-24T23:58:12;9.20;;;8.70;;
